createdAt,value
2019-03-18T00:00:16.520Z,0
2019-03-18T00:01:17.286Z,0
2019-03-18T00:02:17.757Z,0
2019-03-18T00:03:18.230Z,0
2019-03-18T00:04:18.783Z,0
2019-03-18T00:05:19.543Z,0
2019-03-18T00:06:20.478Z,0
2019-03-18T00:07:21.020Z,0
2019-03-18T00:08:22.129Z,0
2019-03-18T00:09:23.720Z,0
2019-03-18T00:10:23.916Z,0
2019-03-18T00:11:24.393Z,0
2019-03-18T00:12:25.210Z,0
2019-03-18T00:13:25.515Z,0
2019-03-18T00:14:25.770Z,0
2019-03-18T00:15:27.366Z,0
2019-03-18T00:16:27.927Z,0
2019-03-18T00:17:28.950Z,0
2019-03-18T00:18:28.982Z,0
2019-03-18T00:19:29.737Z,0
2019-03-18T00:20:30.491Z,0
2019-03-18T00:21:30.963Z,0
2019-03-18T00:22:32.043Z,0
2019-03-18T00:23:33.073Z,0
2019-03-18T00:24:33.819Z,0
2019-03-18T00:25:34.016Z,0
2019-03-18T00:26:34.377Z,0
2019-03-18T00:27:35.134Z,0
2019-03-18T00:28:35.614Z,0
2019-03-18T00:29:36.920Z,0
2019-03-18T00:30:36.679Z,0
2019-03-18T00:31:36.916Z,0
2019-03-18T00:32:37.668Z,0
2019-03-18T00:33:38.209Z,0
2019-03-18T00:34:38.966Z,0
2019-03-18T00:35:39.995Z,0
2019-03-18T00:36:39.655Z,0
2019-03-18T00:37:40.145Z,0
2019-03-18T00:38:41.520Z,0
2019-03-18T00:39:41.716Z,0
2019-03-18T00:40:42.192Z,0
2019-03-18T00:41:42.666Z,0
2019-03-18T00:42:42.859Z,0
2019-03-18T00:43:43.625Z,0
2019-03-18T00:44:44.156Z,0
2019-03-18T00:45:45.500Z,0
2019-03-18T00:46:46.567Z,0
2019-03-18T00:47:47.596Z,0
2019-03-18T00:48:48.364Z,0
2019-03-18T00:49:49.117Z,0
2019-03-18T00:50:49.326Z,0
2019-03-18T00:51:49.513Z,0
2019-03-18T00:52:49.999Z,0
2019-03-18T00:53:50.744Z,0
2019-03-18T00:54:51.844Z,0
2019-03-18T00:55:54.082Z,0
2019-03-18T00:56:54.594Z,0
2019-03-18T00:57:54.623Z,0
2019-03-18T00:58:55.667Z,0
2019-03-18T00:59:55.862Z,0
2019-03-18T01:00:57.179Z,0
2019-03-18T01:01:58.220Z,0
2019-03-18T01:02:58.972Z,0
2019-03-18T01:03:59.170Z,0
2019-03-18T01:05:00.582Z,0
2019-03-18T01:06:01.333Z,0
2019-03-18T01:07:02.284Z,0
2019-03-18T01:08:03.049Z,0
2019-03-18T01:09:03.334Z,0
2019-03-18T01:10:04.366Z,0
2019-03-18T01:11:05.139Z,0
2019-03-18T01:12:05.884Z,0
2019-03-18T01:13:06.357Z,0
2019-03-18T01:14:07.118Z,0
2019-03-18T01:15:07.892Z,0
2019-03-18T01:16:08.370Z,0
2019-03-18T01:17:09.858Z,0
2019-03-18T01:18:10.332Z,0
2019-03-18T01:19:10.802Z,0
2019-03-18T01:20:12.120Z,0
2019-03-18T01:21:12.207Z,0
2019-03-18T01:22:12.682Z,0
2019-03-18T01:23:13.162Z,0
2019-03-18T01:24:13.924Z,0
2019-03-18T01:25:14.683Z,0
2019-03-18T01:26:15.165Z,0
2019-03-18T01:27:15.653Z,0
2019-03-18T01:28:16.160Z,0
2019-03-18T01:29:16.634Z,0
2019-03-18T01:30:17.447Z,0
2019-03-18T01:31:17.920Z,0
2019-03-18T01:32:18.392Z,0
2019-03-18T01:33:19.706Z,0
2019-03-18T01:34:20.754Z,0
2019-03-18T01:35:21.228Z,0
2019-03-18T01:36:22.541Z,0
2019-03-18T01:37:22.804Z,0
2019-03-18T01:38:23.273Z,0
2019-03-18T01:39:23.469Z,0
2019-03-18T01:40:23.959Z,0
2019-03-18T01:41:24.757Z,0
2019-03-18T01:42:24.968Z,0
2019-03-18T01:43:25.169Z,0
2019-03-18T01:44:26.198Z,0
2019-03-18T01:45:39.625Z,0
2019-03-18T01:45:42.608Z,0
2019-03-18T01:45:49.039Z,0
2019-03-18T01:46:47.889Z,0
2019-03-18T01:47:48.423Z,0
2019-03-18T01:48:49.219Z,0
2019-03-18T01:49:50.810Z,0
2019-03-18T01:50:50.851Z,0
2019-03-18T01:51:51.153Z,0
2019-03-18T01:52:51.906Z,0
2019-03-18T01:53:52.946Z,0
2019-03-18T01:54:53.696Z,0
2019-03-18T01:55:54.165Z,0
2019-03-18T01:56:54.798Z,0
2019-03-18T01:57:55.561Z,0
2019-03-18T01:58:56.601Z,0
2019-03-18T01:59:57.632Z,0
2019-03-18T02:00:57.965Z,0
2019-03-18T02:01:59.010Z,0
2019-03-18T02:02:59.480Z,0
2019-03-18T02:04:00.236Z,0
2019-03-18T02:05:01.270Z,0
2019-03-18T02:06:01.747Z,0
2019-03-18T02:07:02.219Z,0
2019-03-18T02:08:03.263Z,0
2019-03-18T02:09:04.310Z,0
2019-03-18T02:10:05.063Z,0
2019-03-18T02:11:05.565Z,0
2019-03-18T02:12:05.782Z,0
2019-03-18T02:13:06.260Z,0
2019-03-18T02:14:07.294Z,0
2019-03-18T02:15:08.334Z,0
2019-03-18T02:16:08.923Z,0
2019-03-18T02:17:09.710Z,0
2019-03-18T02:18:10.027Z,0
2019-03-18T02:19:10.506Z,0
2019-03-18T02:20:11.536Z,0
2019-03-18T02:21:12.358Z,0
2019-03-18T02:22:13.450Z,0
2019-03-18T02:23:13.770Z,0
2019-03-18T02:24:14.539Z,0
2019-03-18T02:25:14.739Z,0
2019-03-18T02:26:15.526Z,0
2019-03-18T02:27:16.492Z,0
2019-03-18T02:28:17.050Z,0
2019-03-18T02:29:18.124Z,0
2019-03-18T02:30:20.251Z,0
2019-03-18T02:31:20.609Z,0
2019-03-18T02:32:20.371Z,0
2019-03-18T02:33:22.077Z,0
2019-03-18T02:34:22.420Z,0
2019-03-18T02:35:23.304Z,0
2019-03-18T02:36:24.654Z,0
2019-03-18T02:37:25.155Z,0
2019-03-18T02:38:26.259Z,0
2019-03-18T02:39:26.577Z,0
2019-03-18T02:40:26.747Z,0
2019-03-18T02:41:28.349Z,0
2019-03-18T02:42:29.677Z,0
2019-03-18T02:43:30.302Z,0
2019-03-18T02:44:31.207Z,0
2019-03-18T02:45:31.558Z,0
2019-03-18T02:46:32.881Z,0
2019-03-18T02:47:33.398Z,0
2019-03-18T02:48:33.729Z,0
2019-03-18T02:49:34.598Z,0
2019-03-18T02:50:34.371Z,0
2019-03-18T02:51:35.984Z,0
2019-03-18T02:52:36.210Z,0
2019-03-18T02:53:37.337Z,0
2019-03-18T02:54:39.062Z,0
2019-03-18T02:55:39.175Z,0
2019-03-18T02:56:39.494Z,0
2019-03-18T02:57:40.674Z,0
2019-03-18T02:58:41.672Z,0
2019-03-18T02:59:41.823Z,0
2019-03-18T03:00:42.449Z,0
2019-03-18T03:01:42.519Z,0
2019-03-18T03:02:44.433Z,0
2019-03-18T03:03:45.078Z,0
2019-03-18T03:04:46.407Z,0
2019-03-18T03:05:47.290Z,0
2019-03-18T03:06:47.643Z,0
2019-03-18T03:07:48.110Z,0
2019-03-18T03:08:49.314Z,0
2019-03-18T03:09:49.952Z,0
2019-03-18T03:10:50.734Z,0
2019-03-18T03:11:51.503Z,0
2019-03-18T03:12:52.814Z,0
2019-03-18T03:13:53.943Z,0
2019-03-18T03:14:54.840Z,0
2019-03-18T03:15:54.967Z,0
2019-03-18T03:16:55.645Z,0
2019-03-18T03:17:56.725Z,0
2019-03-18T03:18:57.359Z,0
2019-03-18T03:19:58.520Z,0
2019-03-18T03:20:58.855Z,0
2019-03-18T03:22:00.451Z,0
2019-03-18T03:23:01.226Z,0
2019-03-18T03:24:02.243Z,0
2019-03-18T03:25:02.731Z,0
2019-03-18T03:26:03.648Z,0
2019-03-18T03:27:03.708Z,0
2019-03-18T03:28:04.051Z,0
2019-03-18T03:29:04.716Z,0
2019-03-18T03:30:06.172Z,0
2019-03-18T03:31:07.216Z,0
2019-03-18T03:32:06.656Z,0
2019-03-18T03:33:07.847Z,0
2019-03-18T03:34:17.817Z,0
2019-03-18T03:35:19.569Z,0
2019-03-18T03:36:19.831Z,0
2019-03-18T03:37:19.925Z,0
2019-03-18T03:38:20.265Z,0
2019-03-18T03:39:20.914Z,0
2019-03-18T03:40:22.084Z,0
2019-03-18T03:41:22.468Z,0
2019-03-18T03:42:23.859Z,0
2019-03-18T03:43:24.233Z,0
2019-03-18T03:44:25.688Z,0
2019-03-18T03:45:26.498Z,0
2019-03-18T03:46:48.462Z,0
2019-03-18T03:47:48.807Z,0
2019-03-18T03:48:50.418Z,0
2019-03-18T03:49:50.754Z,0
2019-03-18T03:50:50.806Z,0
2019-03-18T03:51:51.460Z,0
2019-03-18T03:52:53.350Z,0
2019-03-18T03:53:54.244Z,0
2019-03-18T03:54:55.130Z,0
2019-03-18T03:55:56.029Z,0
2019-03-18T03:56:56.098Z,0
2019-03-18T03:57:57.505Z,0
2019-03-18T03:58:58.822Z,0
2019-03-18T03:59:58.603Z,0
2019-03-18T04:00:59.484Z,0
2019-03-18T04:02:00.093Z,0
2019-03-18T04:03:01.179Z,0
2019-03-18T04:04:01.855Z,0
2019-03-18T04:05:02.518Z,0
2019-03-18T04:06:03.895Z,0
2019-03-18T04:07:04.427Z,0
2019-03-18T04:08:05.664Z,0
2019-03-18T04:09:05.624Z,0
2019-03-18T04:10:06.975Z,0
2019-03-18T04:11:10.878Z,0
2019-03-18T04:12:12.134Z,0
2019-03-18T04:13:12.754Z,0
2019-03-18T04:14:12.514Z,0
2019-03-18T04:15:13.919Z,0
2019-03-18T04:16:14.619Z,0
2019-03-18T04:17:16.221Z,0
2019-03-18T04:18:16.138Z,0
2019-03-18T04:19:17.822Z,0
2019-03-18T04:20:18.472Z,0
2019-03-18T04:21:18.830Z,0
2019-03-18T04:22:19.978Z,0
2019-03-18T04:23:20.563Z,0
2019-03-18T04:24:21.643Z,0
2019-03-18T04:25:23.248Z,0
2019-03-18T04:26:23.004Z,0
2019-03-18T04:27:26.514Z,0
2019-03-18T04:28:27.632Z,0
2019-03-18T04:29:29.224Z,0
2019-03-18T04:30:29.594Z,0
2019-03-18T04:31:30.495Z,0
2019-03-18T04:32:30.884Z,0
2019-03-18T04:33:32.214Z,0
2019-03-18T04:34:33.067Z,0
2019-03-18T04:35:34.956Z,0
2019-03-18T04:36:35.286Z,0
2019-03-18T04:37:36.227Z,0
2019-03-18T04:38:37.561Z,0
2019-03-18T04:39:38.322Z,0
2019-03-18T04:40:39.145Z,0
2019-03-18T04:41:39.900Z,0
2019-03-18T04:42:40.429Z,0
2019-03-18T04:43:41.188Z,0
2019-03-18T04:44:41.405Z,0
2019-03-18T04:45:43.917Z,0
2019-03-18T04:46:44.396Z,0
2019-03-18T04:47:44.880Z,0
2019-03-18T04:48:46.090Z,0
2019-03-18T04:49:46.695Z,0
2019-03-18T04:50:47.173Z,0
2019-03-18T04:51:47.651Z,0
2019-03-18T04:52:48.394Z,0
2019-03-18T04:53:49.154Z,0
2019-03-18T04:54:49.905Z,0
2019-03-18T04:55:50.445Z,0
2019-03-18T04:56:50.921Z,0
2019-03-18T04:57:51.130Z,0
2019-03-18T04:58:52.047Z,0
2019-03-18T04:59:53.079Z,0
2019-03-18T05:00:53.831Z,0
2019-03-18T05:01:54.310Z,0
2019-03-18T05:02:54.784Z,4
2019-03-18T05:03:55.263Z,4
2019-03-18T05:04:56.029Z,0
2019-03-18T05:05:56.779Z,4
2019-03-18T05:06:57.302Z,4
2019-03-18T05:07:58.054Z,0
2019-03-18T05:08:58.544Z,4
2019-03-18T05:09:59.024Z,8
2019-03-18T05:10:59.514Z,4
2019-03-18T05:12:00.288Z,8
2019-03-18T05:13:01.044Z,8
2019-03-18T05:14:01.877Z,8
2019-03-18T05:15:02.943Z,8
2019-03-18T05:16:03.457Z,12
2019-03-18T05:17:04.285Z,12
2019-03-18T05:18:05.055Z,12
2019-03-18T05:19:06.305Z,16
2019-03-18T05:20:06.779Z,20
2019-03-18T05:21:07.539Z,20
2019-03-18T05:22:08.596Z,24
2019-03-18T05:23:09.077Z,24
2019-03-18T05:24:09.563Z,28
2019-03-18T05:25:10.315Z,28
2019-03-18T05:26:10.900Z,36
2019-03-18T05:27:11.663Z,36
2019-03-18T05:28:12.701Z,40
2019-03-18T05:29:12.915Z,40
2019-03-18T05:30:13.963Z,44
2019-03-18T05:31:13.998Z,48
2019-03-18T05:32:15.060Z,48
2019-03-18T05:33:16.101Z,56
2019-03-18T05:34:16.381Z,56
2019-03-18T05:35:16.972Z,64
2019-03-18T05:36:17.173Z,68
2019-03-18T05:37:17.971Z,76
2019-03-18T05:38:19.000Z,80
2019-03-18T05:39:19.130Z,88
2019-03-18T05:40:19.945Z,92
2019-03-18T05:41:20.420Z,96
2019-03-18T05:42:20.985Z,100
2019-03-18T05:43:21.464Z,112
2019-03-18T05:44:22.300Z,120
2019-03-18T05:45:22.576Z,128
2019-03-18T05:46:23.331Z,136
2019-03-18T05:47:23.530Z,144
2019-03-18T05:48:24.007Z,148
2019-03-18T05:49:24.645Z,160
2019-03-18T05:50:25.157Z,168
2019-03-18T05:51:25.745Z,176
2019-03-18T05:52:26.504Z,188
2019-03-18T05:53:26.704Z,196
2019-03-18T05:54:28.017Z,204
2019-03-18T05:55:28.232Z,212
2019-03-18T05:56:28.991Z,224
2019-03-18T05:57:29.547Z,236
2019-03-18T05:58:30.364Z,252
2019-03-18T05:59:30.804Z,268
2019-03-18T06:00:31.841Z,280
2019-03-18T06:01:32.598Z,296
2019-03-18T06:02:32.354Z,300
2019-03-18T06:03:33.394Z,308
2019-03-18T06:04:33.870Z,312
2019-03-18T06:05:34.645Z,320
2019-03-18T06:06:35.399Z,332
2019-03-18T06:07:36.443Z,340
2019-03-18T06:08:37.785Z,348
2019-03-18T06:09:38.630Z,360
2019-03-18T06:10:38.900Z,368
2019-03-18T06:11:39.485Z,388
2019-03-18T06:12:40.463Z,408
2019-03-18T06:13:40.222Z,424
2019-03-18T06:14:40.834Z,432
2019-03-18T06:15:41.598Z,432
2019-03-18T06:16:42.084Z,436
2019-03-18T06:17:54.733Z,444
2019-03-18T06:18:53.110Z,452
2019-03-18T06:19:53.597Z,468
2019-03-18T06:20:54.085Z,476
2019-03-18T06:21:55.146Z,480
2019-03-18T06:22:55.950Z,476
2019-03-18T06:23:57.005Z,476
2019-03-18T06:24:57.331Z,500
2019-03-18T06:25:58.594Z,532
2019-03-18T06:26:58.387Z,572
2019-03-18T06:27:58.591Z,604
2019-03-18T06:28:59.541Z,612
2019-03-18T06:30:00.018Z,600
2019-03-18T06:31:01.286Z,580
2019-03-18T06:32:01.489Z,564
2019-03-18T06:33:02.274Z,548
2019-03-18T06:34:02.765Z,528
2019-03-18T06:35:03.808Z,516
2019-03-18T06:36:04.572Z,516
2019-03-18T06:37:05.615Z,528
2019-03-18T06:38:06.953Z,560
2019-03-18T06:39:07.954Z,600
2019-03-18T06:40:09.499Z,628
2019-03-18T06:41:10.304Z,648
2019-03-18T06:42:09.998Z,656
2019-03-18T06:43:11.079Z,672
2019-03-18T06:44:11.593Z,692
2019-03-18T06:45:14.025Z,712
2019-03-18T06:46:13.842Z,720
2019-03-18T06:47:14.885Z,724
2019-03-18T06:48:15.104Z,728
2019-03-18T06:49:15.673Z,736
2019-03-18T06:50:16.540Z,740
2019-03-18T06:51:17.304Z,732
2019-03-18T06:52:17.835Z,716
2019-03-18T06:53:18.782Z,688
2019-03-18T06:54:18.951Z,676
2019-03-18T06:55:19.730Z,668
2019-03-18T06:56:20.493Z,668
2019-03-18T06:57:21.819Z,672
2019-03-18T06:58:21.307Z,684
2019-03-18T06:59:21.832Z,696
2019-03-18T07:00:22.957Z,704
2019-03-18T07:01:23.729Z,704
2019-03-18T07:02:24.019Z,724
2019-03-18T07:03:24.279Z,780
2019-03-18T07:04:24.768Z,852
2019-03-18T07:05:25.256Z,920
2019-03-18T07:06:26.973Z,940
2019-03-18T07:07:26.470Z,920
2019-03-18T07:08:27.568Z,880
2019-03-18T07:09:28.063Z,820
2019-03-18T07:10:28.827Z,772
2019-03-18T07:11:29.387Z,800
2019-03-18T07:12:31.256Z,868
2019-03-18T07:13:32.361Z,908
2019-03-18T07:14:32.820Z,960
2019-03-18T07:15:33.585Z,1048
2019-03-18T07:16:38.303Z,1140
2019-03-18T07:16:45.769Z,1148
2019-03-18T07:17:45.401Z,1188
2019-03-18T07:18:45.708Z,1240
2019-03-18T07:19:46.826Z,1320
2019-03-18T07:20:47.357Z,1424
2019-03-18T07:21:47.575Z,1524
2019-03-18T07:22:47.875Z,1620
2019-03-18T07:23:49.611Z,1760
2019-03-18T07:24:49.476Z,1892
2019-03-18T07:25:55.931Z,2040
2019-03-18T07:26:02.547Z,2060
2019-03-18T07:27:02.548Z,2164
2019-03-18T07:28:01.098Z,2236
2019-03-18T07:29:01.606Z,2244
2019-03-18T07:30:02.667Z,2212
2019-03-18T07:31:03.444Z,2208
2019-03-18T07:32:04.418Z,2256
2019-03-18T07:33:06.295Z,2256
2019-03-18T07:34:05.864Z,2220
2019-03-18T07:35:06.348Z,2156
2019-03-18T07:36:06.900Z,2156
2019-03-18T07:37:07.514Z,2208
2019-03-18T07:38:09.514Z,2280
2019-03-18T07:39:09.006Z,2312
2019-03-18T07:40:24.506Z,2300
2019-03-18T07:40:34.931Z,2300
2019-03-18T07:40:45.020Z,2300
2019-03-18T07:40:55.083Z,2304
2019-03-18T07:41:02.755Z,2304
2019-03-18T07:41:16.408Z,2320
2019-03-18T07:41:22.735Z,2328
2019-03-18T07:42:21.921Z,2396
2019-03-18T07:43:22.689Z,2504
2019-03-18T07:44:25.727Z,2676
2019-03-18T07:45:25.248Z,2836
2019-03-18T07:46:26.281Z,2964
2019-03-18T07:47:29.433Z,3088
2019-03-18T07:48:33.684Z,3152
2019-03-18T07:48:37.282Z,3148
2019-03-18T07:49:38.160Z,3152
2019-03-18T07:50:39.014Z,3168
2019-03-18T07:51:39.047Z,3160
2019-03-18T07:52:39.264Z,3096
2019-03-18T07:53:39.970Z,3004
2019-03-18T07:54:41.300Z,2888
2019-03-18T07:55:41.683Z,2728
2019-03-18T07:56:42.631Z,2612
2019-03-18T07:57:43.858Z,2520
2019-03-18T07:58:47.732Z,2452
2019-03-18T07:58:58.328Z,2424
2019-03-18T07:59:09.058Z,2388
2019-03-18T07:59:57.974Z,2216
2019-03-18T08:00:58.342Z,2056
2019-03-18T08:01:57.903Z,1912
2019-03-18T08:02:59.301Z,1848
2019-03-18T08:03:59.951Z,1756
2019-03-18T08:05:00.479Z,1752
2019-03-18T08:06:00.964Z,1728
2019-03-18T08:07:01.467Z,1748
2019-03-18T08:08:01.963Z,1792
2019-03-18T08:09:02.182Z,1852
2019-03-18T08:10:03.239Z,1924
2019-03-18T08:11:04.316Z,2044
2019-03-18T08:12:04.863Z,2076
2019-03-18T08:13:05.350Z,2032
2019-03-18T08:14:06.131Z,1944
2019-03-18T08:15:06.923Z,1752
2019-03-18T08:16:07.410Z,1580
2019-03-18T08:17:08.181Z,1484
2019-03-18T08:18:08.968Z,1512
2019-03-18T08:19:09.558Z,1600
2019-03-18T08:20:09.773Z,1708
2019-03-18T08:21:10.706Z,1880
2019-03-18T08:22:11.207Z,2096
2019-03-18T08:23:11.986Z,2344
2019-03-18T08:24:12.478Z,2612
2019-03-18T08:25:14.117Z,2792
2019-03-18T08:26:13.760Z,2804
2019-03-18T08:27:14.260Z,2640
2019-03-18T08:28:15.024Z,2504
2019-03-18T08:29:16.910Z,2244
2019-03-18T08:30:17.073Z,2104
2019-03-18T08:31:17.361Z,1976
2019-03-18T08:32:17.860Z,1816
2019-03-18T08:33:21.968Z,1720
2019-03-18T08:34:20.740Z,1700
2019-03-18T08:35:21.512Z,1764
2019-03-18T08:36:21.998Z,1888
2019-03-18T08:37:29.294Z,2112
2019-03-18T08:37:35.831Z,2136
2019-03-18T08:38:36.567Z,2368
2019-03-18T08:39:37.795Z,2560
2019-03-18T08:40:39.444Z,2732
2019-03-18T08:40:48.957Z,2752
2019-03-18T08:40:57.712Z,2772
2019-03-18T08:41:09.078Z,2800
2019-03-18T08:41:20.090Z,2820
2019-03-18T08:41:29.531Z,2836
2019-03-18T08:41:39.529Z,2852
2019-03-18T08:41:48.980Z,2852
2019-03-18T08:42:52.418Z,2804
2019-03-18T08:43:01.924Z,2796
2019-03-18T08:43:12.056Z,2792
2019-03-18T08:43:23.231Z,2784
2019-03-18T08:43:31.823Z,2784
2019-03-18T08:43:39.870Z,2788
2019-03-18T08:44:41.039Z,2852
2019-03-18T08:45:38.814Z,2948
2019-03-18T08:46:39.030Z,3232
2019-03-18T08:47:39.804Z,3592
2019-03-18T08:48:40.850Z,3900
2019-03-18T08:49:41.064Z,3976
2019-03-18T08:50:41.907Z,3924
2019-03-18T08:51:42.393Z,3764
2019-03-18T08:52:42.947Z,4096
2019-03-18T08:53:44.401Z,4288
2019-03-18T08:54:48.194Z,3956
2019-03-18T08:54:57.048Z,3964
2019-03-18T08:55:57.363Z,3876
2019-03-18T08:57:00.180Z,3856
2019-03-18T08:57:08.387Z,3852
2019-03-18T08:58:10.293Z,4564
2019-03-18T08:59:10.038Z,5684
2019-03-18T09:00:10.018Z,6432
2019-03-18T09:01:10.981Z,3184
2019-03-18T09:02:11.486Z,2676
2019-03-18T09:03:12.868Z,2476
2019-03-18T09:04:13.984Z,2544
2019-03-18T09:05:14.358Z,2492
2019-03-18T09:06:15.560Z,2636
2019-03-18T09:07:16.535Z,2964
2019-03-18T09:08:17.056Z,3500
2019-03-18T09:09:17.268Z,3844
2019-03-18T09:10:18.396Z,4172
2019-03-18T09:11:18.725Z,4168
2019-03-18T09:12:19.766Z,5168
2019-03-18T09:13:20.259Z,12536
2019-03-18T09:14:21.601Z,8720
2019-03-18T09:15:22.924Z,8244
2019-03-18T09:16:23.986Z,9560
2019-03-18T09:17:24.761Z,10576
2019-03-18T09:18:25.567Z,11392
2019-03-18T09:19:26.071Z,12152
2019-03-18T09:20:26.858Z,10492
2019-03-18T09:21:27.336Z,8348
2019-03-18T09:22:27.838Z,8996
2019-03-18T09:23:28.323Z,9292
2019-03-18T09:24:29.165Z,4952
2019-03-18T09:25:29.500Z,5140
2019-03-18T09:26:30.590Z,5472
2019-03-18T09:27:31.139Z,3820
2019-03-18T09:28:31.686Z,2300
2019-03-18T09:29:38.447Z,2152
2019-03-18T09:29:46.754Z,2132
2019-03-18T09:29:55.742Z,2124
2019-03-18T09:30:55.044Z,1928
2019-03-18T09:31:54.963Z,1468
2019-03-18T09:32:56.464Z,992
2019-03-18T09:33:56.091Z,772
2019-03-18T09:34:57.215Z,668
2019-03-18T09:36:03.409Z,644
2019-03-18T09:36:09.382Z,636
2019-03-18T09:37:08.053Z,1040
2019-03-18T09:38:09.100Z,1200
2019-03-18T09:39:15.631Z,1000
2019-03-18T09:39:21.295Z,976
2019-03-18T09:40:20.315Z,756
2019-03-18T09:41:20.822Z,656
2019-03-18T09:42:21.314Z,604
2019-03-18T09:43:26.966Z,772
2019-03-18T09:44:23.453Z,960
2019-03-18T09:45:24.884Z,992
2019-03-18T09:46:30.165Z,1088
2019-03-18T09:46:35.474Z,1108
2019-03-18T09:47:36.821Z,1124
2019-03-18T09:48:35.432Z,1308
2019-03-18T09:49:35.925Z,1348
2019-03-18T09:50:36.982Z,1428
2019-03-18T09:51:38.316Z,1624
2019-03-18T09:52:38.846Z,1940
2019-03-18T09:53:39.606Z,1928
2019-03-18T09:54:39.814Z,1632
2019-03-18T09:55:40.868Z,1544
2019-03-18T09:56:41.918Z,1536
2019-03-18T09:57:27.942Z,1648
2019-03-18T09:58:28.223Z,1476
2019-03-18T09:59:27.961Z,1684
2019-03-18T10:00:27.063Z,1304
2019-03-18T10:01:28.157Z,2036
2019-03-18T10:02:34.830Z,2496
2019-03-18T10:02:43.489Z,2500
2019-03-18T10:02:53.564Z,2504
2019-03-18T10:03:04.267Z,2500
2019-03-18T10:03:12.881Z,2508
2019-03-18T10:03:21.813Z,2512
2019-03-18T10:04:19.672Z,2452
2019-03-18T10:05:20.790Z,2300
2019-03-18T10:06:26.243Z,2168
2019-03-18T10:07:23.420Z,1812
2019-03-18T10:08:27.813Z,2332
2019-03-18T10:09:31.562Z,2444
2019-03-18T10:10:31.555Z,2800
2019-03-18T10:11:32.153Z,2908
2019-03-18T10:12:31.826Z,3400
2019-03-18T10:13:32.045Z,3816
2019-03-18T10:14:32.858Z,4060
2019-03-18T10:15:34.189Z,4588
2019-03-18T10:16:38.733Z,4844
2019-03-18T10:16:44.960Z,4860
2019-03-18T10:17:47.966Z,4916
2019-03-18T10:18:46.578Z,4860
2019-03-18T10:19:46.810Z,5332
2019-03-18T10:20:46.810Z,5808
2019-03-18T10:21:47.632Z,6080
2019-03-18T10:22:48.411Z,6496
2019-03-18T10:23:49.197Z,6680
2019-03-18T10:24:52.104Z,7468
2019-03-18T10:25:57.225Z,8332
2019-03-18T10:26:03.922Z,8452
2019-03-18T10:27:02.633Z,9120
2019-03-18T10:28:03.123Z,7784
2019-03-18T10:29:03.698Z,6912
2019-03-18T10:30:04.187Z,6400
2019-03-18T10:31:04.962Z,5792
2019-03-18T10:32:05.467Z,5212
2019-03-18T10:33:08.903Z,4812
2019-03-18T10:34:08.457Z,4780
2019-03-18T10:35:08.836Z,4924
2019-03-18T10:36:10.467Z,5224
2019-03-18T10:37:11.218Z,5536
2019-03-18T10:38:12.165Z,6276
2019-03-18T10:39:12.324Z,7364
2019-03-18T10:40:13.015Z,8036
2019-03-18T10:41:13.831Z,8716
2019-03-18T10:42:14.597Z,9028
2019-03-18T10:43:15.198Z,10204
2019-03-18T10:44:15.660Z,14016
2019-03-18T10:45:16.660Z,21024
2019-03-18T10:46:17.155Z,15972
2019-03-18T10:47:18.137Z,15016
2019-03-18T10:48:19.821Z,12676
2019-03-18T10:49:21.223Z,10580
2019-03-18T10:50:22.000Z,8916
2019-03-18T10:51:27.849Z,7196
2019-03-18T10:51:35.469Z,7096
2019-03-18T10:52:34.080Z,6696
2019-03-18T10:53:40.293Z,6784
2019-03-18T10:53:47.468Z,6804
2019-03-18T10:54:33.040Z,7036
2019-03-18T10:55:31.112Z,7524
2019-03-18T10:56:32.864Z,10188
2019-03-18T10:56:46.987Z,10796
2019-03-18T10:56:55.379Z,10968
2019-03-18T10:57:53.562Z,10680
2019-03-18T10:58:57.771Z,11188
2019-03-18T11:00:01.097Z,37280
2019-03-18T11:00:08.155Z,32064
2019-03-18T11:01:11.742Z,41824
2019-03-18T11:01:22.793Z,42560
2019-03-18T11:02:23.353Z,40416
2019-03-18T11:02:29.570Z,40256
2019-03-18T11:03:28.526Z,39360
2019-03-18T11:04:30.654Z,37472
2019-03-18T11:05:31.226Z,35776
2019-03-18T11:06:32.194Z,25472
2019-03-18T11:07:32.091Z,31840
2019-03-18T11:08:32.842Z,32608
2019-03-18T11:09:34.479Z,35136
2019-03-18T11:10:35.186Z,17472
2019-03-18T11:11:34.931Z,36384
2019-03-18T11:12:35.443Z,35136
2019-03-18T11:13:37.425Z,36672
2019-03-18T11:14:37.720Z,34880
2019-03-18T11:15:38.847Z,30944
2019-03-18T11:16:39.333Z,11696
2019-03-18T11:17:40.377Z,19328
2019-03-18T11:18:41.161Z,15936
2019-03-18T11:19:42.530Z,13528
2019-03-18T11:20:42.619Z,12948
2019-03-18T11:21:43.896Z,12768
2019-03-18T11:22:45.472Z,12120
2019-03-18T11:23:44.975Z,11480
2019-03-18T11:24:45.374Z,11860
2019-03-18T11:25:45.984Z,11628
2019-03-18T11:26:46.626Z,11384
2019-03-18T11:27:47.143Z,11148
2019-03-18T11:28:48.949Z,10988
2019-03-18T11:29:48.113Z,10888
2019-03-18T11:30:48.629Z,10888
2019-03-18T11:31:49.140Z,9860
2019-03-18T11:32:50.490Z,9896
2019-03-18T11:33:50.603Z,10284
2019-03-18T11:34:51.409Z,10764
2019-03-18T11:35:51.483Z,11396
2019-03-18T11:36:51.989Z,5592
2019-03-18T11:37:52.662Z,7876
2019-03-18T11:38:56.199Z,11700
2019-03-18T11:39:54.341Z,5432
2019-03-18T11:40:55.417Z,6136
2019-03-18T11:42:00.973Z,5700
2019-03-18T11:42:07.626Z,5708
2019-03-18T11:43:06.143Z,5808
2019-03-18T11:44:07.061Z,9428
2019-03-18T11:45:10.287Z,6608
2019-03-18T11:46:11.084Z,5844
2019-03-18T11:47:11.886Z,12400
2019-03-18T11:48:12.124Z,8336
2019-03-18T11:49:12.934Z,8060
2019-03-18T11:50:14.153Z,12644
2019-03-18T11:51:15.987Z,8612
2019-03-18T11:52:16.352Z,6184
2019-03-18T11:53:16.975Z,12000
2019-03-18T11:54:21.654Z,12116
2019-03-18T11:54:31.831Z,12100
2019-03-18T11:54:40.276Z,12096
2019-03-18T11:55:38.148Z,12436
2019-03-18T11:56:38.936Z,11760
2019-03-18T11:57:39.886Z,11584
2019-03-18T11:58:40.658Z,11796
2019-03-18T11:59:41.710Z,10636
2019-03-18T12:00:42.568Z,13284
2019-03-18T12:01:44.031Z,6528
2019-03-18T12:02:44.170Z,6232
2019-03-18T12:03:45.318Z,6472
2019-03-18T12:04:46.116Z,6760
2019-03-18T12:05:46.385Z,7140
2019-03-18T12:06:48.046Z,7592
2019-03-18T12:07:48.243Z,7684
2019-03-18T12:08:48.741Z,7392
2019-03-18T12:09:49.582Z,7008
2019-03-18T12:10:51.593Z,6356
2019-03-18T12:11:52.325Z,5948
2019-03-18T12:12:52.880Z,5800
2019-03-18T12:13:53.941Z,5724
2019-03-18T12:14:54.437Z,5616
2019-03-18T12:15:54.691Z,5512
2019-03-18T12:16:55.014Z,5444
2019-03-18T12:17:57.181Z,5380
2019-03-18T12:18:56.599Z,5304
2019-03-18T12:19:58.600Z,5072
2019-03-18T12:20:59.277Z,4932
2019-03-18T12:21:59.491Z,4836
2019-03-18T12:23:00.551Z,4716
2019-03-18T12:24:02.637Z,4576
2019-03-18T12:25:02.680Z,4576
2019-03-18T12:26:03.961Z,4672
2019-03-18T12:27:05.344Z,4796
2019-03-18T12:28:10.197Z,5184
2019-03-18T12:28:20.049Z,5232
2019-03-18T12:28:27.600Z,5276
2019-03-18T12:29:25.684Z,5832
2019-03-18T12:30:27.347Z,8720
2019-03-18T12:31:27.484Z,7116
2019-03-18T12:32:33.088Z,13456
2019-03-18T12:32:42.383Z,12284
2019-03-18T12:32:52.389Z,9584
2019-03-18T12:33:01.925Z,9568
2019-03-18T12:33:59.563Z,9400
2019-03-18T12:35:06.245Z,12556
2019-03-18T12:35:13.939Z,9780
2019-03-18T12:35:24.480Z,14528
2019-03-18T12:35:34.393Z,11756
2019-03-18T12:35:45.354Z,15040
2019-03-18T12:35:53.477Z,11060
2019-03-18T12:36:05.373Z,16800
2019-03-18T12:36:16.152Z,16896
2019-03-18T12:36:23.363Z,17312
2019-03-18T12:37:22.621Z,14752
2019-03-18T12:38:25.430Z,15872
2019-03-18T12:39:26.772Z,15744
2019-03-18T12:40:32.952Z,15232
2019-03-18T12:40:40.355Z,15136
2019-03-18T12:41:43.522Z,10604
2019-03-18T12:41:51.577Z,9860
2019-03-18T12:42:51.417Z,6552
2019-03-18T12:43:51.308Z,6376
2019-03-18T12:44:54.340Z,10768
2019-03-18T12:45:56.273Z,6768
2019-03-18T12:46:56.481Z,8236
2019-03-18T12:47:57.088Z,27424
2019-03-18T12:48:58.005Z,21760
2019-03-18T12:49:58.984Z,17184
2019-03-18T12:50:59.120Z,15232
2019-03-18T12:52:01.776Z,10344
2019-03-18T12:53:02.036Z,11276
2019-03-18T12:54:03.921Z,9316
2019-03-18T12:55:05.515Z,7612
2019-03-18T12:56:10.464Z,9880
2019-03-18T12:56:20.121Z,9640
2019-03-18T12:56:29.096Z,10960
2019-03-18T12:56:39.654Z,12092
2019-03-18T12:56:47.819Z,13156
2019-03-18T12:57:48.481Z,6628
2019-03-18T12:58:48.780Z,6020
2019-03-18T12:59:49.616Z,5708
2019-03-18T13:00:52.841Z,5784
2019-03-18T13:01:16.352Z,5736
2019-03-18T13:01:23.637Z,5732
2019-03-18T13:02:20.590Z,5528